Time;durP1;ratioP1;P1;durP2;ratioP2;P2;SDS_P1;SDS_P2;PMS_P1;PMS_P2;Temp;Humidity;BMP_temperature;BMP_pressure;BME280_temperature;BME280_humidity;BME280_pressure;Samples;Min_cycle;Max_cycle;Signal;HPM_P1;HPM_P2
2024/01/03 00:00:41;;;;;;;17.10;2.67;;;11.80;43.90;;;;;;5019573;28;20518;-75
2024/01/03 00:03:07;;;;;;;17.55;2.75;;;11.80;44.40;;;;;;5018143;28;20389;-76
2024/01/03 00:05:41;;;;;;;13.13;2.63;;;11.80;44.90;;;;;;5024857;28;20404;-75
2024/01/03 00:08:14;;;;;;;13.77;2.95;;;11.80;44.70;;;;;;5028296;28;20385;-74
2024/01/03 00:10:49;;;;;;;15.07;3.30;;;11.80;45.00;;;;;;5027454;28;20414;-75
2024/01/03 00:13:32;;;;;;;16.67;2.90;;;11.80;45.10;;;;;;5027255;28;20404;-74
2024/01/03 00:16:07;;;;;;;12.93;2.80;;;11.80;44.90;;;;;;5024818;28;20388;-75
2024/01/03 00:18:37;;;;;;;16.67;3.30;;;11.90;44.90;;;;;;5022866;28;20389;-73
2024/01/03 00:21:08;;;;;;;19.65;3.30;;;11.90;44.90;;;;;;5027378;28;20383;-74
2024/01/03 00:23:51;;;;;;;12.43;2.83;;;11.90;45.20;;;;;;5028315;28;20405;-74
2024/01/03 00:26:17;;;;;;;14.43;2.60;;;11.90;45.00;;;;;;5025652;28;20463;-74
2024/01/03 00:28:43;;;;;;;16.83;3.00;;;11.90;44.70;;;;;;5021153;28;20377;-74
2024/01/03 00:31:10;;;;;;;13.98;3.15;;;11.90;45.30;;;;;;5022797;28;20463;-73
2024/01/03 00:33:41;;;;;;;17.70;3.00;;;11.90;44.70;;;;;;5030443;28;21206;-74
2024/01/03 00:36:11;;;;;;;18.85;2.67;;;12.00;44.70;;;;;;5024824;28;20467;-74
2024/01/03 00:38:41;;;;;;;21.85;3.38;;;11.90;45.10;;;;;;5023289;28;20372;-75
2024/01/03 00:41:09;;;;;;;14.73;3.15;;;11.90;45.50;;;;;;5030730;28;20467;-73
2024/01/03 00:43:41;;;;;;;16.52;3.30;;;11.80;46.80;;;;;;5029901;28;20419;-75
2024/01/03 00:46:11;;;;;;;16.55;3.38;;;11.80;48.20;;;;;;5018298;28;20373;-75
2024/01/03 00:48:38;;;;;;;18.80;3.45;;;11.80;50.80;;;;;;5020804;28;20385;-75
2024/01/03 00:51:04;;;;;;;11.90;2.65;;;11.50;53.90;;;;;;5027590;28;20396;-75
2024/01/03 00:53:30;;;;;;;15.63;3.63;;;11.40;54.90;;;;;;5024711;28;20385;-74
2024/01/03 00:55:56;;;;;;;16.60;2.83;;;11.30;54.70;;;;;;5029760;28;20389;-74
2024/01/03 00:58:22;;;;;;;20.50;3.85;;;11.20;55.70;;;;;;5026325;28;20396;-73
2024/01/03 01:00:48;;;;;;;15.85;3.30;;;11.10;57.60;;;;;;5032745;28;20400;-73
2024/01/03 01:03:14;;;;;;;18.60;3.20;;;11.00;57.20;;;;;;5030723;28;20380;-73
2024/01/03 01:05:39;;;;;;;13.67;3.10;;;11.00;58.40;;;;;;5025174;28;20395;-76
2024/01/03 01:08:05;;;;;;;16.50;2.80;;;11.00;57.30;;;;;;5023905;28;20435;-76
2024/01/03 01:10:31;;;;;;;17.38;3.15;;;10.90;58.70;;;;;;5025055;28;20416;-74
2024/01/03 01:12:57;;;;;;;13.27;2.60;;;10.90;58.40;;;;;;5020085;28;20409;-74
2024/01/03 01:15:22;;;;;;;15.80;3.10;;;10.90;59.80;;;;;;5034028;28;20388;-73
2024/01/03 01:17:48;;;;;;;20.83;3.00;;;10.80;59.40;;;;;;5034107;28;20411;-76
2024/01/03 01:20:13;;;;;;;14.07;2.97;;;10.90;56.80;;;;;;5034150;28;20472;-74
2024/01/03 01:22:39;;;;;;;13.40;3.10;;;10.80;56.40;;;;;;5030193;28;20377;-73
2024/01/03 01:25:05;;;;;;;15.90;2.80;;;10.70;56.20;;;;;;5030741;28;20396;-73
2024/01/03 01:27:31;;;;;;;12.25;3.15;;;10.70;57.10;;;;;;5018017;28;20451;-76
2024/01/03 01:29:57;;;;;;;18.85;2.95;;;10.70;56.80;;;;;;5014410;28;20389;-75
2024/01/03 01:32:22;;;;;;;11.23;2.30;;;10.70;55.50;;;;;;5014617;28;20417;-75
2024/01/03 01:34:48;;;;;;;11.60;2.70;;;10.70;55.50;;;;;;5015468;28;20723;-75
2024/01/03 01:37:13;;;;;;;13.67;3.00;;;10.70;54.10;;;;;;5016143;28;20405;-74
2024/01/03 01:39:40;;;;;;;11.57;2.70;;;10.80;53.80;;;;;;5015021;28;20408;-75
2024/01/03 01:42:06;;;;;;;12.82;2.80;;;10.90;53.10;;;;;;5014843;28;20387;-75
2024/01/03 01:44:31;;;;;;;14.63;2.40;;;10.90;53.10;;;;;;5014070;28;20448;-75
2024/01/03 01:46:58;;;;;;;11.87;2.27;;;11.00;53.80;;;;;;5014512;28;20389;-74
2024/01/03 01:49:26;;;;;;;16.63;2.70;;;11.00;53.50;;;;;;5014189;28;20462;-75
2024/01/03 01:51:52;;;;;;;14.68;2.40;;;11.10;53.10;;;;;;5014503;28;20887;-75
2024/01/03 01:54:18;;;;;;;11.63;2.60;;;11.10;52.90;;;;;;5014508;28;20412;-75
2024/01/03 01:56:44;;;;;;;10.85;2.50;;;11.20;52.80;;;;;;5014228;28;20519;-75
2024/01/03 01:59:11;;;;;;;16.00;2.60;;;11.10;52.80;;;;;;5013604;28;20537;-75
2024/01/03 02:01:37;;;;;;;11.17;2.40;;;11.10;52.90;;;;;;5013500;28;20385;-73
2024/01/03 02:04:05;;;;;;;15.25;2.30;;;11.10;53.10;;;;;;5013212;28;20403;-74
2024/01/03 02:06:31;;;;;;;10.77;2.40;;;11.20;52.20;;;;;;5013779;28;20537;-76
2024/01/03 02:08:56;;;;;;;6.93;2.03;;;11.20;52.70;;;;;;5013300;28;20460;-76
2024/01/03 02:11:22;;;;;;;11.57;1.87;;;11.30;52.50;;;;;;5011938;28;20377;-75
2024/01/03 02:13:47;;;;;;;11.65;2.40;;;11.20;53.90;;;;;;5013971;28;20408;-74
2024/01/03 02:16:13;;;;;;;11.40;2.40;;;11.20;53.50;;;;;;5013135;28;20392;-75
2024/01/03 02:18:39;;;;;;;11.87;2.40;;;11.20;53.30;;;;;;5013763;28;20427;-75
2024/01/03 02:21:12;;;;;;;16.25;3.13;;;11.20;53.00;;;;;;5013081;28;20480;-73
2024/01/03 02:23:37;;;;;;;9.88;2.00;;;11.20;53.60;;;;;;5012750;28;20747;-74
2024/01/03 02:26:03;;;;;;;9.83;2.07;;;11.20;54.10;;;;;;5012456;28;20392;-74
2024/01/03 02:28:29;;;;;;;11.30;1.80;;;11.20;54.20;;;;;;5012571;28;20404;-74
2024/01/03 02:30:55;;;;;;;13.37;2.30;;;11.20;54.40;;;;;;5012783;28;20484;-75
2024/01/03 02:33:20;;;;;;;13.30;2.60;;;11.10;55.50;;;;;;5012645;28;20910;-75
2024/01/03 02:35:46;;;;;;;13.27;2.40;;;11.10;54.50;;;;;;5011426;28;20431;-74
2024/01/03 02:38:11;;;;;;;12.80;2.30;;;11.20;53.80;;;;;;5012135;28;20393;-75
2024/01/03 02:40:37;;;;;;;7.80;1.88;;;11.20;53.30;;;;;;5012352;28;20903;-74
2024/01/03 02:43:03;;;;;;;11.57;2.17;;;11.30;51.50;;;;;;5012367;28;20381;-74
2024/01/03 02:45:28;;;;;;;10.07;2.30;;;11.30;51.50;;;;;;5012234;28;20806;-74
2024/01/03 02:47:54;;;;;;;8.27;1.97;;;11.40;51.10;;;;;;5012068;28;20424;-75
2024/01/03 02:50:19;;;;;;;10.52;2.40;;;11.40;50.50;;;;;;5012240;28;20412;-74
2024/01/03 02:52:45;;;;;;;13.33;2.40;;;11.40;49.90;;;;;;5012351;28;20451;-74
2024/01/03 02:55:10;;;;;;;13.87;2.40;;;11.40;49.90;;;;;;5011982;28;20396;-75
2024/01/03 02:57:36;;;;;;;11.10;2.30;;;11.40;49.70;;;;;;5012922;28;20462;-75
2024/01/03 03:00:02;;;;;;;8.30;1.85;;;11.40;49.00;;;;;;5016774;28;20567;-75
2024/01/03 03:02:28;;;;;;;9.00;2.00;;;11.40;48.90;;;;;;5012206;28;20803;-75
2024/01/03 03:04:53;;;;;;;7.77;2.20;;;11.40;49.20;;;;;;5012498;28;20400;-74
2024/01/03 03:07:19;;;;;;;8.17;1.80;;;11.30;48.60;;;;;;5013627;28;20411;-75
2024/01/03 03:09:44;;;;;;;7.65;1.67;;;11.20;49.30;;;;;;5030343;28;20404;-75
2024/01/03 03:12:10;;;;;;;13.15;2.33;;;11.10;49.80;;;;;;5030080;28;20427;-75
2024/01/03 03:14:35;;;;;;;10.07;2.10;;;11.20;49.80;;;;;;5031418;28;20448;-74
2024/01/03 03:17:01;;;;;;;7.87;2.40;;;11.20;49.90;;;;;;5030748;28;20463;-74
2024/01/03 03:19:26;;;;;;;9.00;1.97;;;11.30;49.90;;;;;;5027581;28;20542;-74
2024/01/03 03:21:52;;;;;;;8.15;2.30;;;11.20;50.00;;;;;;5013611;28;20464;-74
2024/01/03 03:24:17;;;;;;;8.88;1.50;;;11.20;50.90;;;;;;5013185;28;20447;-75
2024/01/03 03:26:43;;;;;;;7.97;1.97;;;11.10;51.20;;;;;;5013066;28;20405;-75
2024/01/03 03:29:09;;;;;;;10.47;1.90;;;11.00;51.30;;;;;;5013272;28;20403;-74
2024/01/03 03:31:34;;;;;;;7.87;1.50;;;11.00;51.20;;;;;;5012620;28;20396;-76
2024/01/03 03:34:00;;;;;;;6.63;1.77;;;11.10;50.80;;;;;;5012399;28;20479;-73
2024/01/03 03:36:25;;;;;;;8.73;1.50;;;11.20;50.40;;;;;;5012059;28;20393;-75
2024/01/03 03:38:51;;;;;;;6.63;1.55;;;11.20;50.10;;;;;;5011876;28;20479;-74
2024/01/03 03:41:19;;;;;;;9.20;1.80;;;11.20;50.20;;;;;;5011618;28;20393;-74
2024/01/03 03:43:45;;;;;;;5.27;1.70;;;11.20;49.70;;;;;;5012352;28;20979;-75
2024/01/03 03:46:12;;;;;;;8.00;2.20;;;11.20;50.40;;;;;;5011755;28;20662;-74
2024/01/03 03:48:37;;;;;;;10.68;2.08;;;11.20;52.10;;;;;;5011076;28;20424;-74
2024/01/03 03:51:03;;;;;;;15.17;2.10;;;11.10;54.10;;;;;;5013039;28;20787;-75
2024/01/03 03:53:29;;;;;;;9.93;2.42;;;10.90;55.10;;;;;;5016581;28;20389;-74
2024/01/03 03:55:55;;;;;;;9.45;2.47;;;10.90;55.70;;;;;;5013043;28;20718;-74
2024/01/03 03:58:20;;;;;;;10.63;1.70;;;10.90;57.50;;;;;;5011204;28;20400;-74
2024/01/03 04:00:46;;;;;;;12.25;2.65;;;10.70;59.90;;;;;;5011122;28;20404;-75
2024/01/03 04:03:11;;;;;;;9.77;2.47;;;10.60;59.40;;;;;;5011147;28;20439;-74
2024/01/03 04:05:38;;;;;;;12.83;2.40;;;10.60;60.30;;;;;;5011045;28;20468;-75
2024/01/03 04:08:04;;;;;;;9.52;2.00;;;10.60;60.60;;;;;;5009149;28;20480;-74
2024/01/03 04:10:29;;;;;;;10.53;2.10;;;10.50;59.90;;;;;;5011174;28;20389;-74
2024/01/03 04:12:55;;;;;;;11.63;2.73;;;10.50;58.60;;;;;;5011523;28;20415;-76
2024/01/03 04:15:22;;;;;;;16.50;2.27;;;10.60;58.10;;;;;;5012371;28;20455;-74
2024/01/03 04:17:48;;;;;;;10.68;2.10;;;10.60;58.70;;;;;;5011165;28;20475;-75
2024/01/03 04:20:13;;;;;;;14.20;2.70;;;10.60;57.80;;;;;;5010844;28;20536;-73
2024/01/03 04:22:42;;;;;;;12.20;2.30;;;10.60;57.80;;;;;;5011315;28;20407;-75
2024/01/03 04:25:08;;;;;;;10.70;2.53;;;10.70;56.50;;;;;;5015026;28;20450;-75
2024/01/03 04:27:34;;;;;;;10.75;2.30;;;10.70;56.40;;;;;;5012644;28;20384;-75
2024/01/03 04:29:59;;;;;;;9.68;2.38;;;10.70;56.60;;;;;;5012194;28;20388;-74
2024/01/03 04:32:25;;;;;;;11.77;2.10;;;10.70;56.20;;;;;;5011640;28;20399;-75
2024/01/03 04:34:50;;;;;;;10.95;2.70;;;10.80;55.30;;;;;;5011499;28;20480;-75
2024/01/03 04:37:16;;;;;;;10.63;2.50;;;10.90;55.30;;;;;;5014499;28;20396;-74
2024/01/03 04:39:41;;;;;;;14.87;2.87;;;11.00;54.60;;;;;;5023850;28;20562;-75
2024/01/03 04:42:07;;;;;;;11.43;2.60;;;11.00;54.70;;;;;;5026033;28;20399;-75
2024/01/03 04:44:34;;;;;;;10.95;2.53;;;11.00;54.10;;;;;;5031386;28;20386;-74
2024/01/03 04:47:00;;;;;;;10.10;2.45;;;11.00;53.60;;;;;;5032931;28;20391;-75
2024/01/03 04:49:27;;;;;;;8.38;2.20;;;10.90;54.20;;;;;;5030692;28;20387;-74
2024/01/03 04:51:53;;;;;;;12.75;2.13;;;10.90;54.50;;;;;;5016914;28;20397;-74
2024/01/03 04:54:18;;;;;;;11.13;2.65;;;11.00;54.20;;;;;;5011884;28;20439;-76
2024/01/03 04:56:44;;;;;;;13.65;2.30;;;11.00;54.30;;;;;;5011296;28;20427;-75
2024/01/03 04:59:09;;;;;;;9.05;2.90;;;10.90;55.10;;;;;;5014493;28;20415;-77
2024/01/03 05:01:35;;;;;;;9.93;2.30;;;10.90;55.40;;;;;;5034909;28;20415;-72
2024/01/03 05:04:00;;;;;;;5.90;1.90;;;10.90;55.00;;;;;;5023940;28;20395;-72
2024/01/03 05:06:26;;;;;;;14.27;2.67;;;10.90;53.80;;;;;;5027700;28;20391;-72
2024/01/03 05:08:51;;;;;;;7.15;2.03;;;10.90;53.60;;;;;;5026981;28;20425;-74
2024/01/03 05:11:17;;;;;;;4.85;1.45;;;11.00;53.20;;;;;;5014564;28;20456;-74
2024/01/03 05:13:42;;;;;;;8.30;2.30;;;10.90;52.30;;;;;;5010627;28;20773;-74
2024/01/03 05:16:08;;;;;;;7.28;1.60;;;10.90;53.00;;;;;;5010439;28;20519;-74
2024/01/03 05:18:34;;;;;;;8.50;1.60;;;10.90;53.30;;;;;;5011792;28;20432;-74
2024/01/03 05:20:59;;;;;;;7.67;1.60;;;10.80;54.20;;;;;;5014195;28;20409;-74
2024/01/03 05:23:25;;;;;;;5.13;1.37;;;10.80;55.30;;;;;;5014269;28;20400;-74
2024/01/03 05:25:50;;;;;;;8.33;1.90;;;10.70;57.00;;;;;;5012767;28;20392;-75
2024/01/03 05:28:16;;;;;;;5.60;1.80;;;10.60;58.20;;;;;;5014327;28;20395;-74
2024/01/03 05:30:41;;;;;;;12.68;2.03;;;10.60;59.20;;;;;;5014114;28;20392;-76
2024/01/03 05:33:07;;;;;;;10.50;1.90;;;10.60;60.20;;;;;;5018012;28;20388;-76
2024/01/03 05:35:32;;;;;;;10.50;2.30;;;10.70;60.30;;;;;;5018496;28;20439;-75
2024/01/03 05:37:58;;;;;;;11.50;2.20;;;10.70;61.00;;;;;;5017279;28;20400;-74
2024/01/03 05:40:24;;;;;;;11.40;1.95;;;10.70;61.00;;;;;;5016247;28;20919;-74
2024/01/03 05:42:50;;;;;;;10.70;2.43;;;10.70;61.70;;;;;;5013816;28;20424;-76
2024/01/03 05:45:15;;;;;;;7.83;2.40;;;10.70;62.00;;;;;;5013419;28;20385;-75
2024/01/03 05:47:41;;;;;;;6.50;2.10;;;10.70;60.70;;;;;;5013605;28;20713;-74
2024/01/03 05:50:08;;;;;;;9.60;2.43;;;10.70;60.10;;;;;;5013427;28;20392;-74
2024/01/03 05:52:35;;;;;;;9.00;2.17;;;10.80;60.10;;;;;;5013454;28;20393;-74
2024/01/03 05:55:01;;;;;;;5.30;1.92;;;10.70;61.20;;;;;;5013451;28;20884;-74
2024/01/03 05:57:26;;;;;;;9.30;2.00;;;10.70;61.60;;;;;;5013305;28;20392;-75
2024/01/03 05:59:52;;;;;;;10.00;2.20;;;10.70;62.00;;;;;;5013924;28;20408;-74
2024/01/03 06:02:17;;;;;;;9.88;2.40;;;10.80;62.50;;;;;;5012233;28;20424;-75
2024/01/03 06:04:44;;;;;;;11.55;2.83;;;10.80;62.90;;;;;;5012641;28;20397;-75
2024/01/03 06:07:10;;;;;;;8.25;2.45;;;10.80;62.80;;;;;;5012075;28;20384;-75
2024/01/03 06:09:36;;;;;;;12.77;2.15;;;10.70;64.10;;;;;;5013430;28;20387;-73
2024/01/03 06:12:02;;;;;;;11.90;2.60;;;10.70;65.00;;;;;;5013650;28;20388;-74
2024/01/03 06:14:27;;;;;;;11.93;2.83;;;10.70;66.40;;;;;;5014958;28;20602;-75
2024/01/03 06:16:53;;;;;;;9.07;2.70;;;10.70;67.80;;;;;;5016899;28;20385;-73
2024/01/03 06:19:18;;;;;;;11.27;2.30;;;10.70;69.10;;;;;;5012654;28;20419;-74
2024/01/03 06:21:44;;;;;;;11.57;3.08;;;10.70;69.60;;;;;;5012494;28;20388;-74
2024/01/03 06:24:09;;;;;;;19.10;3.30;;;10.60;70.70;;;;;;5012614;28;20388;-74
2024/01/03 06:26:35;;;;;;;12.27;2.30;;;10.60;70.80;;;;;;5012691;28;20381;-73
2024/01/03 06:29:01;;;;;;;11.38;2.72;;;10.60;73.70;;;;;;5012111;28;20385;-74
2024/01/03 06:31:26;;;;;;;14.13;2.80;;;10.50;74.90;;;;;;5012877;28;20827;-73
2024/01/03 06:33:52;;;;;;;16.50;2.83;;;10.50;76.10;;;;;;5012488;28;20389;-74
2024/01/03 06:36:18;;;;;;;9.40;2.37;;;10.40;76.20;;;;;;5013256;28;20392;-74
2024/01/03 06:38:43;;;;;;;11.77;3.20;;;10.30;79.30;;;;;;5013286;28;20443;-74
2024/01/03 06:41:09;;;;;;;13.93;3.23;;;10.20;82.00;;;;;;5012437;28;20462;-74
2024/01/03 06:43:35;;;;;;;14.77;2.40;;;10.20;83.50;;;;;;5012884;28;20479;-75
2024/01/03 06:46:00;;;;;;;12.27;2.93;;;10.10;85.30;;;;;;5013229;28;20389;-74
2024/01/03 06:48:26;;;;;;;12.23;3.30;;;10.10;85.90;;;;;;5013096;28;20513;-74
2024/01/03 06:50:51;;;;;;;18.83;3.70;;;10.10;86.50;;;;;;5012624;28;20385;-74
2024/01/03 06:53:17;;;;;;;17.95;3.45;;;10.10;86.60;;;;;;5014962;28;20403;-75
2024/01/03 06:55:42;;;;;;;13.68;3.00;;;10.10;86.40;;;;;;5016163;28;20468;-75
2024/01/03 06:58:08;;;;;;;15.07;3.35;;;10.10;86.30;;;;;;5014072;28;20384;-75
2024/01/03 07:00:33;;;;;;;14.88;3.65;;;10.10;86.60;;;;;;5012629;28;20466;-74
2024/01/03 07:02:59;;;;;;;11.97;2.93;;;10.20;86.00;;;;;;5012600;28;20389;-76
2024/01/03 07:05:25;;;;;;;17.80;4.03;;;10.20;84.60;;;;;;5012830;28;20481;-75
2024/01/03 07:07:50;;;;;;;15.57;3.37;;;10.20;84.20;;;;;;5013063;28;20392;-73
2024/01/03 07:10:16;;;;;;;15.27;3.43;;;10.20;83.80;;;;;;5012584;28;20484;-74
2024/01/03 07:12:42;;;;;;;19.87;4.40;;;10.10;83.30;;;;;;5012516;28;20479;-74
2024/01/03 07:15:09;;;;;;;18.53;3.50;;;10.20;82.40;;;;;;5012492;28;20392;-74
2024/01/03 07:17:34;;;;;;;12.40;3.30;;;10.10;80.20;;;;;;5012673;28;20388;-74
2024/01/03 07:20:00;;;;;;;25.60;3.70;;;10.20;79.10;;;;;;5012668;28;20876;-76
2024/01/03 07:22:25;;;;;;;23.13;3.80;;;10.20;76.80;;;;;;5013420;28;20388;-74
2024/01/03 07:24:51;;;;;;;18.73;3.70;;;10.30;75.50;;;;;;5012949;28;20421;-74
2024/01/03 07:27:16;;;;;;;23.35;3.97;;;10.40;75.00;;;;;;5010352;28;20476;-74
2024/01/03 07:29:42;;;;;;;21.17;4.22;;;10.40;73.80;;;;;;5012078;28;20385;-74
2024/01/03 07:32:08;;;;;;;17.88;4.00;;;10.50;72.20;;;;;;5012741;28;20384;-74
2024/01/03 07:34:33;;;;;;;21.92;4.32;;;10.50;70.90;;;;;;5013633;28;20963;-75
2024/01/03 07:36:59;;;;;;;13.07;3.08;;;10.60;70.00;;;;;;5013006;28;20389;-74
2024/01/03 07:39:25;;;;;;;16.53;3.50;;;10.60;66.60;;;;;;5011782;28;20409;-74
2024/01/03 07:41:51;;;;;;;13.40;3.33;;;10.80;63.20;;;;;;5010878;28;20395;-75
2024/01/03 07:44:16;;;;;;;17.48;3.42;;;10.80;63.90;;;;;;5011399;28;20451;-75
2024/01/03 07:46:42;;;;;;;13.80;3.20;;;10.80;61.40;;;;;;5010997;28;20376;-74
2024/01/03 07:49:07;;;;;;;20.33;3.63;;;10.90;62.30;;;;;;5011457;28;20412;-73
2024/01/03 07:51:38;;;;;;;18.27;3.50;;;11.00;57.80;;;;;;5011291;28;20384;-74
2024/01/03 07:54:09;;;;;;;20.15;3.80;;;11.10;59.00;;;;;;5011647;28;20749;-74
2024/01/03 07:56:36;;;;;;;13.13;3.28;;;11.10;60.70;;;;;;5016571;28;20803;-75
2024/01/03 07:59:01;;;;;;;15.70;2.85;;;11.00;62.60;;;;;;5011337;28;20613;-75
2024/01/03 08:01:29;;;;;;;27.27;3.47;;;10.90;67.60;;;;;;5010600;28;22541;-77
2024/01/03 08:03:54;;;;;;;15.40;3.07;;;10.80;66.20;;;;;;5012509;28;20519;-73
2024/01/03 08:06:20;;;;;;;17.30;3.00;;;10.80;64.00;;;;;;5014336;28;20400;-73
2024/01/03 08:08:46;;;;;;;14.00;2.80;;;10.70;63.20;;;;;;5013369;28;20380;-74
2024/01/03 08:11:12;;;;;;;14.32;2.30;;;10.70;62.80;;;;;;5011602;28;20385;-74
2024/01/03 08:13:37;;;;;;;9.32;2.08;;;10.70;58.30;;;;;;5011959;28;20404;-75
2024/01/03 08:16:06;;;;;;;10.38;2.13;;;10.70;59.40;;;;;;5011573;28;20396;-76
2024/01/03 08:18:32;;;;;;;10.27;2.20;;;10.70;59.50;;;;;;5010744;28;20455;-75
2024/01/03 08:20:57;;;;;;;8.65;2.30;;;10.70;59.70;;;;;;5010811;28;20412;-75
2024/01/03 08:23:23;;;;;;;12.20;2.20;;;10.70;59.60;;;;;;5011106;28;20389;-75
2024/01/03 08:25:48;;;;;;;8.43;2.00;;;10.70;59.20;;;;;;5010598;28;20860;-76
2024/01/03 08:28:14;;;;;;;9.70;1.80;;;10.70;60.10;;;;;;5010473;28;20384;-74
2024/01/03 08:30:40;;;;;;;9.30;2.20;;;10.70;59.30;;;;;;5010820;28;20399;-75
2024/01/03 08:33:06;;;;;;;12.60;3.00;;;10.70;60.90;;;;;;5010979;28;20384;-75
2024/01/03 08:35:31;;;;;;;14.83;2.27;;;10.70;60.50;;;;;;5011039;28;20389;-75
2024/01/03 08:37:57;;;;;;;12.17;1.90;;;10.80;60.60;;;;;;5010729;28;20759;-75
2024/01/03 08:40:22;;;;;;;10.83;2.00;;;10.90;59.50;;;;;;5013565;28;20419;-76
2024/01/03 08:42:48;;;;;;;10.97;1.97;;;10.80;60.20;;;;;;5013060;28;20385;-75
2024/01/03 08:45:13;;;;;;;15.80;2.50;;;10.90;59.70;;;;;;5016093;28;20443;-75
2024/01/03 08:47:39;;;;;;;12.73;2.50;;;10.90;60.90;;;;;;5012866;28;20887;-76
2024/01/03 08:50:04;;;;;;;7.45;2.20;;;10.90;58.90;;;;;;5012524;28;20483;-75
2024/01/03 08:52:30;;;;;;;8.38;2.05;;;11.10;58.50;;;;;;5012215;28;20843;-75
2024/01/03 08:54:56;;;;;;;9.53;2.20;;;11.10;58.50;;;;;;5016342;28;20401;-76
2024/01/03 08:57:22;;;;;;;8.55;2.10;;;11.10;59.10;;;;;;5015484;28;20385;-75
2024/01/03 08:59:47;;;;;;;15.20;2.57;;;11.20;58.10;;;;;;5015823;28;20404;-75
2024/01/03 09:02:13;;;;;;;10.40;2.40;;;11.10;57.40;;;;;;5014060;28;20384;-75
2024/01/03 09:04:40;;;;;;;17.47;2.70;;;11.10;57.70;;;;;;5014207;28;20956;-76
2024/01/03 09:07:06;;;;;;;10.45;2.40;;;11.10;57.50;;;;;;5013545;28;20389;-76
2024/01/03 09:09:31;;;;;;;9.67;2.37;;;11.10;58.10;;;;;;5013801;28;20479;-74
2024/01/03 09:11:57;;;;;;;14.38;2.80;;;11.20;57.10;;;;;;5013908;28;20800;-76
2024/01/03 09:14:23;;;;;;;7.03;2.55;;;11.20;56.00;;;;;;5013760;28;20449;-76
2024/01/03 09:16:48;;;;;;;11.82;2.50;;;11.20;56.00;;;;;;5013558;28;20397;-75
2024/01/03 09:19:14;;;;;;;11.63;2.30;;;11.30;55.60;;;;;;5013766;28;20420;-74
2024/01/03 09:21:45;;;;;;;13.23;2.38;;;11.40;53.20;;;;;;5014303;28;20471;-75
2024/01/03 09:24:11;;;;;;;13.00;2.75;;;11.50;52.70;;;;;;5013693;28;20595;-75
2024/01/03 09:26:36;;;;;;;12.80;2.40;;;11.50;53.20;;;;;;5018360;28;20478;-77
2024/01/03 09:29:02;;;;;;;10.45;2.60;;;11.50;53.10;;;;;;5022572;28;20376;-75
2024/01/03 09:31:28;;;;;;;10.55;2.50;;;11.50;52.60;;;;;;5023587;28;20420;-76
2024/01/03 09:33:54;;;;;;;9.80;2.40;;;11.60;51.60;;;;;;5016817;28;20428;-75
2024/01/03 09:36:20;;;;;;;10.32;2.30;;;11.60;50.70;;;;;;5013606;28;20495;-76
2024/01/03 09:38:46;;;;;;;12.80;2.50;;;11.70;50.90;;;;;;5013709;28;20408;-74
2024/01/03 09:41:15;;;;;;;9.13;2.30;;;11.60;50.70;;;;;;5012942;28;20451;-75
2024/01/03 09:43:45;;;;;;;11.40;2.30;;;11.70;50.50;;;;;;5013515;28;20748;-74
2024/01/03 09:46:11;;;;;;;9.50;2.30;;;11.60;50.90;;;;;;5013284;28;20388;-75
2024/01/03 09:48:47;;;;;;;10.75;2.03;;;11.70;50.60;;;;;;5012594;28;20429;-75
2024/01/03 09:51:12;;;;;;;16.35;2.22;;;11.90;49.70;;;;;;5013459;28;20393;-76
2024/01/03 09:53:40;;;;;;;10.25;2.50;;;12.00;49.20;;;;;;5012753;28;20412;-75
2024/01/03 09:56:06;;;;;;;10.98;2.80;;;12.00;49.30;;;;;;5013776;28;20866;-77
2024/01/03 09:58:33;;;;;;;11.50;2.45;;;12.00;48.80;;;;;;5014262;28;20451;-75
2024/01/03 10:00:58;;;;;;;11.57;2.35;;;12.10;49.30;;;;;;5016657;28;20408;-77
2024/01/03 10:03:24;;;;;;;15.07;2.60;;;12.00;48.70;;;;;;5018143;28;20474;-76
2024/01/03 10:06:15;;;;;;;13.38;2.70;;;12.00;48.70;;;;;;5012832;28;20748;-76
2024/01/03 10:08:41;;;;;;;10.10;2.65;;;11.90;49.10;;;;;;5013437;28;20384;-75
2024/01/03 10:11:20;;;;;;;12.88;3.25;;;11.80;49.10;;;;;;5013176;28;20868;-75
2024/01/03 10:13:47;;;;;;;15.25;2.85;;;11.70;50.60;;;;;;5015235;28;20823;-76
2024/01/03 10:16:28;;;;;;;11.43;2.63;;;11.70;50.60;;;;;;5014823;28;20389;-76
2024/01/03 10:19:09;;;;;;;15.80;2.93;;;11.70;50.10;;;;;;5014263;28;20389;-75
2024/01/03 10:21:36;;;;;;;9.48;2.40;;;11.90;49.70;;;;;;5013608;28;20403;-75
2024/01/03 10:24:05;;;;;;;12.83;2.87;;;11.90;49.10;;;;;;5013658;28;20425;-74
2024/01/03 10:26:31;;;;;;;18.15;3.47;;;12.00;47.90;;;;;;5017659;28;20389;-76
2024/01/03 10:29:13;;;;;;;17.67;2.67;;;12.10;48.00;;;;;;5020776;28;20385;-76
2024/01/03 10:31:40;;;;;;;14.70;2.17;;;12.10;48.00;;;;;;5019555;28;20376;-75
2024/01/03 10:34:05;;;;;;;9.52;2.67;;;12.10;48.00;;;;;;5021763;28;20404;-75
2024/01/03 10:36:34;;;;;;;10.33;3.07;;;11.90;48.90;;;;;;5015191;28;20377;-75
2024/01/03 10:39:01;;;;;;;13.00;2.40;;;12.00;48.80;;;;;;5025271;28;20406;-75
2024/01/03 10:41:34;;;;;;;14.70;3.00;;;12.10;49.20;;;;;;5027300;28;20392;-76
2024/01/03 10:44:01;;;;;;;13.90;2.70;;;12.00;49.50;;;;;;5019119;28;20944;-76
2024/01/03 10:46:29;;;;;;;12.82;2.47;;;12.00;49.80;;;;;;5012436;28;20495;-75
2024/01/03 10:48:56;;;;;;;13.50;2.50;;;12.00;50.50;;;;;;5012513;28;20844;-76
2024/01/03 10:51:28;;;;;;;16.17;2.60;;;11.90;52.40;;;;;;5012306;28;20816;-76
2024/01/03 10:53:58;;;;;;;14.65;3.47;;;11.80;52.20;;;;;;5012463;28;20884;-75
2024/01/03 10:56:24;;;;;;;15.10;3.10;;;11.70;53.00;;;;;;5012106;28;20443;-77
2024/01/03 10:58:52;;;;;;;13.65;3.70;;;11.70;53.70;;;;;;5011985;28;20799;-74
2024/01/03 11:01:45;;;;;;;18.80;3.78;;;11.80;53.50;;;;;;5011894;28;20405;-75
2024/01/03 11:04:40;;;;;;;17.10;3.55;;;11.80;52.70;;;;;;5011917;28;20487;-76
2024/01/03 11:07:19;;;;;;;14.30;3.17;;;11.90;52.40;;;;;;5012209;28;20859;-76
2024/01/03 11:09:45;;;;;;;16.90;3.63;;;11.90;52.20;;;;;;5012238;28;20404;-76
2024/01/03 11:12:13;;;;;;;18.73;3.50;;;12.10;51.20;;;;;;5012183;28;20827;-75
2024/01/03 11:14:39;;;;;;;15.73;3.30;;;12.30;51.00;;;;;;5011790;28;20408;-76
2024/01/03 11:17:06;;;;;;;13.95;3.60;;;12.40;49.20;;;;;;5010918;28;20395;-76
2024/01/03 11:19:32;;;;;;;18.75;3.40;;;12.70;47.70;;;;;;5011953;28;20503;-76
2024/01/03 11:22:05;;;;;;;18.52;3.50;;;12.80;46.00;;;;;;5011600;28;20384;-75
2024/01/03 11:24:30;;;;;;;19.35;3.03;;;13.00;45.00;;;;;;5012037;28;20392;-74
2024/01/03 11:26:56;;;;;;;13.00;3.07;;;13.10;44.30;;;;;;5011954;28;20389;-77
2024/01/03 11:29:44;;;;;;;15.60;2.97;;;13.10;44.20;;;;;;5012030;28;20443;-76
2024/01/03 11:32:25;;;;;;;11.07;2.65;;;13.00;43.80;;;;;;5011775;28;20733;-76
2024/01/03 11:34:51;;;;;;;12.02;3.17;;;12.80;44.40;;;;;;5011880;28;20411;-75
2024/01/03 11:37:16;;;;;;;11.25;3.10;;;12.90;45.00;;;;;;5011919;28;20393;-76
2024/01/03 11:39:45;;;;;;;14.43;2.90;;;12.90;44.20;;;;;;5011745;28;20412;-76
2024/01/03 11:42:21;;;;;;;14.80;3.08;;;13.10;43.90;;;;;;5011754;28;20385;-76
2024/01/03 11:45:00;;;;;;;13.13;3.00;;;13.30;43.80;;;;;;5015796;28;20447;-76
2024/01/03 11:47:25;;;;;;;14.07;2.70;;;13.50;42.10;;;;;;5015439;28;20464;-76
2024/01/03 11:49:58;;;;;;;16.40;3.03;;;13.60;41.40;;;;;;5011766;28;20483;-75
2024/01/03 11:52:24;;;;;;;14.57;3.03;;;13.50;41.60;;;;;;5011734;28;20403;-76
2024/01/03 11:55:01;;;;;;;18.98;3.03;;;13.40;41.80;;;;;;5010417;28;20483;-75
2024/01/03 11:57:27;;;;;;;18.07;3.20;;;13.30;42.30;;;;;;5011370;28;20807;-75
2024/01/03 12:00:03;;;;;;;14.83;3.10;;;13.20;42.20;;;;;;5011297;28;20409;-76
2024/01/03 12:02:28;;;;;;;15.48;2.80;;;13.00;43.00;;;;;;5011535;28;20448;-75
2024/01/03 12:05:02;;;;;;;10.60;3.00;;;12.90;43.40;;;;;;5011363;28;20450;-76
2024/01/03 12:07:30;;;;;;;8.45;2.50;;;12.70;46.10;;;;;;5011798;28;20839;-74
2024/01/03 12:09:57;;;;;;;10.85;2.75;;;12.30;48.30;;;;;;5013559;28;20389;-75
2024/01/03 12:12:23;;;;;;;17.60;2.80;;;12.20;50.10;;;;;;5014880;28;20481;-75
2024/01/03 12:14:53;;;;;;;17.33;3.50;;;12.20;49.80;;;;;;5014765;28;20407;-75
2024/01/03 12:17:25;;;;;;;16.08;3.10;;;12.20;51.20;;;;;;5010838;28;20384;-76
2024/01/03 12:19:51;;;;;;;15.85;3.00;;;12.30;49.80;;;;;;5010796;28;20408;-75
2024/01/03 12:22:24;;;;;;;13.10;2.95;;;12.10;50.30;;;;;;5010957;28;20392;-76
2024/01/03 12:24:49;;;;;;;15.63;2.67;;;12.10;48.90;;;;;;5011198;28;20396;-75
2024/01/03 12:27:23;;;;;;;13.45;2.80;;;12.30;48.30;;;;;;5011399;28;20392;-76
2024/01/03 12:29:50;;;;;;;13.82;3.28;;;12.40;47.90;;;;;;5015703;28;20384;-76
2024/01/03 12:32:17;;;;;;;15.05;3.13;;;12.50;48.50;;;;;;5017812;28;20408;-75
2024/01/03 12:34:44;;;;;;;11.63;2.72;;;12.50;47.60;;;;;;5016257;28;20387;-75
2024/01/03 12:37:10;;;;;;;15.20;3.20;;;12.50;47.50;;;;;;5015336;28;20405;-76